createdAt,value
2018-11-05T00:00:02.512Z,80.70
2018-11-05T00:04:55.106Z,80.63
2018-11-05T00:09:47.796Z,82.40
2018-11-05T00:14:40.429Z,87.30
2018-11-05T00:19:33.053Z,78.93
2018-11-05T00:24:25.758Z,81.77
2018-11-05T00:29:18.382Z,91.93
2018-11-05T00:34:11.001Z,85.93
2018-11-05T00:39:07.895Z,81.60
2018-11-05T00:44:00.577Z,93.70
2018-11-05T00:48:53.197Z,91.47
2018-11-05T00:53:45.886Z,92.80
2018-11-05T00:58:38.521Z,97.53
2018-11-05T01:03:31.255Z,102.07
2018-11-05T01:08:23.869Z,93.53
2018-11-05T01:13:16.441Z,107.03
2018-11-05T01:18:09.054Z,104.13
2018-11-05T01:23:01.648Z,112.73
2018-11-05T01:27:54.245Z,112.67
2018-11-05T01:32:46.834Z,103.87
2018-11-05T01:37:39.458Z,108.67
2018-11-05T01:42:32.056Z,102.33
2018-11-05T01:47:24.682Z,106.23
2018-11-05T01:52:17.345Z,120.57
2018-11-05T01:57:10.005Z,109.33
2018-11-05T02:02:02.601Z,126.37
2018-11-05T02:06:55.232Z,111.63
2018-11-05T02:11:47.857Z,117.27
2018-11-05T02:16:40.813Z,110.50
2018-11-05T02:21:33.421Z,110.53
2018-11-05T02:26:26.025Z,122.00
2018-11-05T02:31:18.674Z,112.63
2018-11-05T02:36:11.304Z,106.47
2018-11-05T02:41:04.193Z,113.23
2018-11-05T02:45:56.829Z,112.97
2018-11-05T02:50:49.514Z,114.67
2018-11-05T02:55:42.133Z,113.00
2018-11-05T03:00:34.758Z,109.13
2018-11-05T03:05:27.350Z,121.27
2018-11-05T03:10:19.974Z,113.83
2018-11-05T03:15:14.817Z,109.20
2018-11-05T03:20:09.409Z,104.90
2018-11-05T03:25:02.049Z,114.53
2018-11-05T03:29:54.669Z,108.73
2018-11-05T03:34:47.232Z,109.10
2018-11-05T03:39:39.841Z,111.83
2018-11-05T03:44:32.454Z,107.37
2018-11-05T03:49:25.070Z,110.60
2018-11-05T03:54:17.768Z,106.80
2018-11-05T03:59:10.390Z,108.87
2018-11-05T04:04:03.025Z,100.37
2018-11-05T04:08:55.827Z,101.37
2018-11-05T04:13:48.473Z,108.57
2018-11-05T04:18:41.094Z,102.57
2018-11-05T04:23:33.697Z,98.83
2018-11-05T04:28:26.438Z,89.73
2018-11-05T04:33:19.070Z,102.07
2018-11-05T04:38:11.660Z,92.70
2018-11-05T04:43:04.505Z,93.93
2018-11-05T04:47:57.121Z,94.27
2018-11-05T04:52:49.751Z,86.53
2018-11-05T04:57:42.385Z,85.03
2018-11-05T05:02:35.026Z,80.40
2018-11-05T05:07:27.588Z,83.53
2018-11-05T05:12:20.266Z,81.93
2018-11-05T05:17:13.030Z,85.07
2018-11-05T05:22:05.898Z,82.77
2018-11-05T05:26:58.489Z,88.20
2018-11-05T05:31:51.151Z,88.83
2018-11-05T05:36:43.786Z,80.67
2018-11-05T05:41:36.474Z,85.43
2018-11-05T05:46:29.137Z,84.27
2018-11-05T05:51:21.901Z,78.77
2018-11-05T05:56:14.534Z,85.37
2018-11-05T06:01:07.441Z,81.70
2018-11-05T06:06:00.275Z,80.10
2018-11-05T06:10:52.890Z,81.60
2018-11-05T06:15:45.609Z,86.80
2018-11-05T06:20:38.471Z,87.13
2018-11-05T06:25:31.113Z,83.10
2018-11-05T06:30:23.794Z,76.33
2018-11-05T06:35:18.058Z,80.20
2018-11-05T06:40:13.045Z,69.93
2018-11-05T06:45:08.897Z,74.23
2018-11-05T06:50:01.794Z,74.07
2018-11-05T06:54:54.581Z,77.93
2018-11-05T06:59:47.190Z,70.13
2018-11-05T07:04:39.915Z,74.03
2018-11-05T07:14:31.940Z,77.17
2018-11-05T07:19:24.673Z,74.77
2018-11-05T07:24:17.329Z,75.47
2018-11-05T07:29:10.153Z,75.47
2018-11-05T07:34:02.977Z,74.43
2018-11-05T07:38:55.551Z,69.80
2018-11-05T07:43:48.142Z,75.20
2018-11-05T07:48:41.010Z,73.63
2018-11-05T07:53:33.621Z,75.00
2018-11-05T07:58:26.225Z,73.87
2018-11-05T08:03:18.854Z,78.97
2018-11-05T08:08:11.649Z,70.37
2018-11-05T08:13:04.288Z,68.00
2018-11-05T08:17:56.978Z,73.57
2018-11-05T08:22:49.749Z,73.00
2018-11-05T08:27:42.705Z,71.40
2018-11-05T08:32:35.417Z,72.17
2018-11-05T08:37:28.278Z,68.13
2018-11-05T08:42:20.926Z,70.97
2018-11-05T08:47:13.570Z,73.57
2018-11-05T08:52:06.412Z,69.40
2018-11-05T08:56:59.077Z,69.17
2018-11-05T09:01:52.029Z,67.20
2018-11-05T09:06:44.741Z,65.23
2018-11-05T09:11:37.875Z,70.53
2018-11-05T09:16:30.170Z,72.37
2018-11-05T09:21:22.987Z,79.57
2018-11-05T09:26:15.854Z,66.70
2018-11-05T09:31:08.511Z,66.17
2018-11-05T09:36:01.209Z,65.47
2018-11-05T09:40:53.870Z,68.63
2018-11-05T09:45:46.576Z,61.70
2018-11-05T09:50:39.370Z,62.80
2018-11-05T09:55:31.951Z,66.40
2018-11-05T10:00:25.497Z,59.90
2018-11-05T10:05:18.334Z,67.90
2018-11-05T10:10:11.781Z,66.07
2018-11-05T10:15:05.797Z,67.40
2018-11-05T10:19:58.435Z,67.77
2018-11-05T10:24:51.246Z,61.83
2018-11-05T10:29:43.807Z,62.87
2018-11-05T10:34:36.435Z,58.77
2018-11-05T10:39:29.120Z,57.57
2018-11-05T10:44:21.783Z,54.97
2018-11-05T10:49:14.569Z,59.80
2018-11-05T10:54:07.257Z,55.30
2018-11-05T10:58:59.989Z,59.97
2018-11-05T11:03:58.446Z,53.70
2018-11-05T11:08:50.980Z,53.33
2018-11-05T11:13:43.810Z,52.00
2018-11-05T11:18:36.453Z,56.63
2018-11-05T11:23:30.201Z,57.93
2018-11-05T11:28:22.905Z,56.07
2018-11-05T11:33:15.585Z,61.07
2018-11-05T11:38:08.325Z,61.63
2018-11-05T11:43:01.130Z,56.97
2018-11-05T11:47:53.803Z,48.97
2018-11-05T11:52:46.657Z,46.87
2018-11-05T11:57:39.625Z,57.93
2018-11-05T12:02:32.265Z,50.80
2018-11-05T12:07:24.918Z,50.70
2018-11-05T12:12:17.518Z,50.67
2018-11-05T12:17:10.145Z,53.07
2018-11-05T12:22:02.830Z,58.70
2018-11-05T12:26:55.680Z,52.70
2018-11-05T12:31:48.296Z,51.37
2018-11-05T12:36:41.131Z,53.17
2018-11-05T12:41:33.850Z,52.83
2018-11-05T12:46:26.538Z,51.27
2018-11-05T12:51:19.329Z,52.90
2018-11-05T12:56:12.024Z,53.40
2018-11-05T13:01:04.883Z,46.53
2018-11-05T13:05:57.498Z,46.97
2018-11-05T13:10:50.171Z,52.90
2018-11-05T13:15:42.815Z,59.33
2018-11-05T13:20:35.417Z,48.23
2018-11-05T13:25:28.081Z,55.20
2018-11-05T13:30:20.842Z,46.67
2018-11-05T13:35:16.771Z,51.70
2018-11-05T13:40:13.353Z,49.67
2018-11-05T13:45:07.950Z,53.40
2018-11-05T13:50:00.976Z,56.80
2018-11-05T13:54:53.495Z,48.10
2018-11-05T13:59:46.125Z,51.23
2018-11-05T14:04:38.821Z,58.67
2018-11-05T14:09:31.720Z,52.47
2018-11-05T14:14:24.603Z,56.17
2018-11-05T14:19:17.346Z,59.63
2018-11-05T14:24:10.163Z,53.47
2018-11-05T14:29:03.121Z,50.23
2018-11-05T14:33:55.525Z,57.17
2018-11-05T14:38:48.219Z,48.47
2018-11-05T14:43:41.108Z,51.43
2018-11-05T14:48:33.695Z,49.77
2018-11-05T14:53:26.365Z,52.83
2018-11-05T14:58:19.031Z,60.13
2018-11-05T15:03:11.726Z,59.93
2018-11-05T15:08:05.257Z,52.73
2018-11-05T15:12:57.946Z,52.33
2018-11-05T15:17:50.649Z,52.33
2018-11-05T15:22:43.549Z,58.40
2018-11-05T15:27:37.097Z,51.73
2018-11-05T15:32:29.707Z,55.03
2018-11-05T15:37:22.490Z,53.53
2018-11-05T15:42:15.126Z,51.20
2018-11-05T15:47:07.801Z,55.87
2018-11-05T15:52:00.835Z,56.73
2018-11-05T15:56:53.510Z,57.33
2018-11-05T16:01:46.170Z,51.43
2018-11-05T16:06:38.796Z,51.00
2018-11-05T16:11:31.441Z,54.70
2018-11-05T16:16:24.247Z,56.23
2018-11-05T16:21:16.987Z,50.70
2018-11-05T16:26:09.671Z,48.30
2018-11-05T16:31:02.369Z,51.03
2018-11-05T16:35:55.049Z,48.97
2018-11-05T16:40:47.681Z,51.00
2018-11-05T16:45:40.383Z,49.60
2018-11-05T16:50:33.030Z,50.50
2018-11-05T16:55:25.734Z,50.83
2018-11-05T17:00:18.896Z,51.33
2018-11-05T17:05:11.548Z,53.13
2018-11-05T17:10:05.986Z,49.93
2018-11-05T17:14:58.580Z,45.97
2018-11-05T17:19:51.169Z,46.83
2018-11-05T17:24:44.849Z,52.53
2018-11-05T17:29:37.664Z,49.87
2018-11-05T17:34:30.326Z,49.30
2018-11-05T17:39:22.953Z,47.03
2018-11-05T17:44:15.573Z,51.37
2018-11-05T17:49:10.238Z,50.10
2018-11-05T17:54:02.911Z,47.33
2018-11-05T17:58:55.701Z,47.37
2018-11-05T18:03:48.539Z,51.27
2018-11-05T18:08:41.343Z,44.63
2018-11-05T18:13:34.053Z,47.13
2018-11-05T18:18:26.702Z,47.93
2018-11-05T18:23:19.585Z,49.13
2018-11-05T18:28:12.229Z,42.83
2018-11-05T18:33:04.992Z,41.53
2018-11-05T18:37:57.646Z,44.00
2018-11-05T18:42:50.376Z,40.10
2018-11-05T18:47:43.198Z,47.60
2018-11-05T18:52:36.273Z,40.53
2018-11-05T18:57:29.160Z,39.37
2018-11-05T19:02:27.707Z,39.13
2018-11-05T19:07:20.523Z,46.27
2018-11-05T19:12:13.261Z,43.17
2018-11-05T19:17:05.925Z,40.07
2018-11-05T19:21:58.577Z,39.17
2018-11-05T19:26:51.511Z,38.47
2018-11-05T19:31:44.163Z,42.03
2018-11-05T19:36:36.810Z,36.33
2018-11-05T19:41:29.521Z,40.20
2018-11-05T19:46:22.197Z,37.13
2018-11-05T19:51:14.815Z,35.13
2018-11-05T19:56:07.750Z,39.93
2018-11-05T20:01:00.516Z,36.63
2018-11-05T20:05:53.267Z,41.90
2018-11-05T20:10:45.849Z,36.13
2018-11-05T20:15:38.576Z,35.40
2018-11-05T20:20:31.304Z,35.20
2018-11-05T20:25:23.919Z,34.33
2018-11-05T20:30:19.240Z,33.13
2018-11-05T20:35:12.112Z,34.80
2018-11-05T20:40:06.760Z,33.20
2018-11-05T20:44:59.371Z,30.43
2018-11-05T20:49:52.143Z,31.40
2018-11-05T20:54:44.983Z,32.47
2018-11-05T20:59:37.585Z,36.83
2018-11-05T21:04:30.298Z,33.27
2018-11-05T21:09:23.201Z,33.80
2018-11-05T21:14:15.886Z,34.37
2018-11-05T21:19:08.570Z,31.90
2018-11-05T21:24:01.451Z,33.80
2018-11-05T21:28:54.169Z,28.43
2018-11-05T21:33:46.989Z,28.47
2018-11-05T21:38:40.467Z,28.50
2018-11-05T21:43:33.383Z,29.23
2018-11-05T21:48:26.062Z,27.83
2018-11-05T21:53:18.811Z,27.30
2018-11-05T21:58:11.428Z,29.90
2018-11-05T22:03:09.104Z,27.00
2018-11-05T22:08:01.850Z,25.57
2018-11-05T22:12:54.638Z,25.67
2018-11-05T22:17:47.252Z,26.67
2018-11-05T22:22:40.236Z,24.97
2018-11-05T22:27:32.895Z,24.50
2018-11-05T22:32:25.688Z,23.97
2018-11-05T22:37:18.461Z,25.30
2018-11-05T22:42:11.097Z,27.90
2018-11-05T22:47:04.001Z,22.57
2018-11-05T22:51:56.569Z,24.93
2018-11-05T22:56:49.553Z,22.40
2018-11-05T23:01:51.021Z,21.37
2018-11-05T23:06:43.753Z,22.93
2018-11-05T23:11:36.465Z,20.73
2018-11-05T23:16:29.106Z,21.70
2018-11-05T23:21:21.738Z,21.90
2018-11-05T23:26:14.475Z,24.13
2018-11-05T23:31:07.129Z,24.57
2018-11-05T23:35:59.731Z,21.57
2018-11-05T23:40:52.417Z,23.13
2018-11-05T23:45:45.073Z,20.67
2018-11-05T23:50:37.817Z,21.37
2018-11-05T23:55:30.422Z,20.47
